Terminal Aerodrome Forecast
Issued by NWS

Home | Current Version | Previous Version | Text Only | Print | Product List | Glossary On
Versions: 1 2 3 4 5 6 7 8 9 10 11 12 13 14 15 16
267
FTUS45 KFGZ 031606 AAA
TAFGCN
TAF AMD
KGCN 031606Z 0316/0412 05012G20KT P6SM FEW250
     FM040200 05008KT P6SM FEW250=

USA.gov is the U.S. government's official web portal to all federal, state and local government web resources and services.